Terminal Aerodrome Forecast
Issued by NWS Paducah, KY

Home | Current Version | Previous Version | Text Only | Print | Product List | Glossary On
Versions: 1 2 3 4 5 6 7 8 9 10 11 12 13 14 15 16 17 18 19 20 21 22
000
FTUS43 KPAH 211419 AAB
TAFPAH
TAF AMD
KPAH 211419Z 2114/2212 02005KT P6SM VCSH OVC040
     FM220400 03015KT 4SM SHRA BR SCT005 OVC015=

USA.gov is the U.S. government's official web portal to all federal, state and local government web resources and services.